KALX/ALX METAR and TAF weather

Enter ICAO airport designator
Station Type Date Time Source
KALX METAR 2020/02/27 12:55 UTC NOAA

KALX 271255Z AUTO 31006KT 10SM OVC036 02/M04 A3022 RMK AO2 T00231043


Station Type Date Time Source
KALX Decoded METAR 2020/02/27 12:55 UTC NOAA

Alexander City, Thomas C Russell Field Airport, AL, United States (KALX) 32-54-53N 085-57-46W
Feb 27, 2020 - 07:55 AM EST / 2020.02.27 1255 UTC
Wind: from the NW (310 degrees) at 7 MPH (6 KT):0
Visibility: 10 mile(s):0
Sky conditions: overcast
Temperature: 36.1 F (2.3 C)
Dew Point: 24.3 F (-4.3 C)
Relative Humidity: 61%
Pressure (altimeter): 30.22 in. Hg (1023 hPa)
ob: KALX 271255Z AUTO 31006KT 10SM OVC036 02/M04 A3022 RMK AO2 T00231043
cycle: 13

Station Type Date Time Source
KALX TAF UTC NOAA

Error!

Example: see airport list